Time;durP1;ratioP1;P1;durP2;ratioP2;P2;SDS_P1;SDS_P2;PMS_P1;PMS_P2;Temp;Humidity;BMP_temperature;BMP_pressure;BME280_temperature;BME280_humidity;BME280_pressure;Samples;Min_cycle;Max_cycle;Signal;HPM_P1;HPM_P2
2023/08/09 00:00:12;;;;;;;1.37;1.20;;;18.70;69.00;;;;;;6170579;23;20429;-71
2023/08/09 00:02:40;;;;;;;1.67;1.17;;;18.70;69.00;;;;;;6166735;23;20503;-71
2023/08/09 00:05:09;;;;;;;1.90;1.37;;;18.70;68.70;;;;;;6164956;23;20774;-72
2023/08/09 00:07:37;;;;;;;1.97;1.30;;;18.70;69.00;;;;;;6169162;22;20819;-72
2023/08/09 00:10:06;;;;;;;2.20;1.20;;;18.70;68.90;;;;;;6169925;23;20402;-72
2023/08/09 00:12:35;;;;;;;1.53;1.27;;;18.80;68.80;;;;;;6168825;23;20402;-72
2023/08/09 00:15:05;;;;;;;1.63;1.07;;;18.70;69.10;;;;;;6170475;23;20430;-72
2023/08/09 00:17:37;;;;;;;1.63;1.03;;;18.80;68.60;;;;;;6168128;23;20438;-72
2023/08/09 00:20:08;;;;;;;1.80;1.47;;;18.70;68.40;;;;;;6169128;23;20414;-72
2023/08/09 00:22:36;;;;;;;3.20;1.53;;;18.70;68.90;;;;;;6168563;23;20429;-72
2023/08/09 00:25:06;;;;;;;2.63;1.67;;;18.70;68.90;;;;;;6170506;23;20907;-72
2023/08/09 00:27:34;;;;;;;1.53;1.00;;;18.80;69.10;;;;;;6167741;23;20938;-72
2023/08/09 00:30:05;;;;;;;2.10;1.50;;;18.80;68.60;;;;;;6169396;23;20452;-72
2023/08/09 00:32:33;;;;;;;2.07;1.23;;;18.70;68.60;;;;;;6168179;23;20388;-72
2023/08/09 00:35:02;;;;;;;1.63;1.03;;;18.70;68.90;;;;;;6169517;23;20521;-72
2023/08/09 00:37:31;;;;;;;2.33;1.30;;;18.80;68.80;;;;;;6170519;23;20400;-72
2023/08/09 00:40:00;;;;;;;2.67;1.40;;;18.70;69.10;;;;;;6169956;23;20403;-72
2023/08/09 00:42:29;;;;;;;1.70;1.20;;;18.70;69.00;;;;;;6167114;23;20921;-72
2023/08/09 00:44:57;;;;;;;2.27;1.40;;;18.70;69.20;;;;;;6170501;23;21036;-72
2023/08/09 00:47:27;;;;;;;1.83;1.43;;;18.80;69.10;;;;;;6170475;23;21207;-72
2023/08/09 00:49:55;;;;;;;2.10;1.60;;;18.80;69.20;;;;;;6170748;23;20428;-72
2023/08/09 00:52:27;;;;;;;2.80;1.50;;;18.70;69.00;;;;;;6167653;23;20496;-71
2023/08/09 00:54:56;;;;;;;2.13;1.57;;;18.80;69.40;;;;;;6170926;23;21181;-72
2023/08/09 00:57:24;;;;;;;1.80;1.10;;;18.80;69.60;;;;;;6171998;23;20989;-72
2023/08/09 00:59:53;;;;;;;1.77;1.43;;;18.70;69.10;;;;;;6172941;23;20874;-72
2023/08/09 01:02:22;;;;;;;2.43;1.40;;;18.70;69.60;;;;;;6169852;23;20402;-72
2023/08/09 01:04:52;;;;;;;2.07;1.10;;;18.80;69.10;;;;;;6170233;23;20415;-72
2023/08/09 01:07:28;;;;;;;2.20;1.40;;;18.70;69.20;;;;;;6171739;23;20440;-72
2023/08/09 01:10:03;;;;;;;2.27;1.77;;;18.80;69.40;;;;;;6171241;23;20790;-72
2023/08/09 01:12:37;;;;;;;1.87;1.50;;;18.70;69.30;;;;;;6144361;23;20528;-72
2023/08/09 01:15:08;;;;;;;2.20;1.13;;;18.70;69.10;;;;;;6171557;23;20438;-72
2023/08/09 01:17:38;;;;;;;1.93;1.30;;;18.70;69.60;;;;;;6171584;23;20397;-72
2023/08/09 01:20:11;;;;;;;1.47;1.27;;;18.80;70.70;;;;;;6170319;23;20414;-72
2023/08/09 01:22:47;;;;;;;1.40;1.27;;;18.70;69.10;;;;;;6169566;23;20392;-72
2023/08/09 01:25:18;;;;;;;1.97;1.47;;;18.70;69.50;;;;;;6171285;23;20413;-72
2023/08/09 01:27:46;;;;;;;1.93;1.60;;;18.80;69.60;;;;;;6169735;23;20441;-72
2023/08/09 01:30:14;;;;;;;2.20;1.57;;;18.70;69.40;;;;;;6171401;23;20948;-72
2023/08/09 01:32:43;;;;;;;2.87;1.67;;;18.80;69.40;;;;;;6169993;23;20782;-72
2023/08/09 01:35:12;;;;;;;1.73;1.30;;;18.70;69.70;;;;;;6169789;23;20801;-72
2023/08/09 01:37:46;;;;;;;2.13;1.40;;;18.70;69.90;;;;;;6170304;23;20490;-72
2023/08/09 01:40:18;;;;;;;1.60;1.23;;;18.70;69.80;;;;;;6171110;23;20375;-72
2023/08/09 01:42:47;;;;;;;2.30;1.07;;;18.70;69.90;;;;;;6169283;23;20379;-72
2023/08/09 01:45:16;;;;;;;2.40;1.77;;;18.70;69.40;;;;;;6169337;23;20420;-72
2023/08/09 01:47:45;;;;;;;1.80;1.33;;;18.70;69.50;;;;;;6170041;23;20924;-72
2023/08/09 01:50:21;;;;;;;1.87;1.20;;;18.70;69.80;;;;;;6169463;23;20727;-72
2023/08/09 01:52:49;;;;;;;1.90;1.60;;;18.70;70.00;;;;;;6168833;23;20438;-72
2023/08/09 01:55:20;;;;;;;1.70;1.30;;;18.70;69.70;;;;;;6167355;23;20483;-72
2023/08/09 01:57:49;;;;;;;2.50;1.20;;;18.70;69.50;;;;;;6170033;23;20383;-72
2023/08/09 02:00:19;;;;;;;1.60;1.00;;;18.70;71.00;;;;;;6170508;23;20382;-72
2023/08/09 02:02:48;;;;;;;1.80;1.27;;;18.70;69.40;;;;;;6172704;23;20436;-72
2023/08/09 02:05:17;;;;;;;2.70;1.70;;;18.70;69.50;;;;;;6173142;23;20517;-72
2023/08/09 02:07:46;;;;;;;2.17;1.60;;;18.70;70.10;;;;;;6172891;23;20919;-72
2023/08/09 02:10:19;;;;;;;1.57;1.00;;;18.70;69.70;;;;;;6174416;23;20389;-72
2023/08/09 02:12:48;;;;;;;2.23;1.70;;;18.70;69.70;;;;;;6172183;23;20772;-72
2023/08/09 02:15:18;;;;;;;2.10;1.37;;;18.70;69.50;;;;;;6171215;23;20950;-72
2023/08/09 02:17:48;;;;;;;1.93;1.40;;;18.70;69.90;;;;;;6170124;23;20980;-72
2023/08/09 02:20:19;;;;;;;1.80;1.40;;;18.70;70.50;;;;;;6173553;23;20755;-72
2023/08/09 02:22:48;;;;;;;1.40;1.20;;;18.70;70.00;;;;;;6171480;23;20439;-72
2023/08/09 02:25:19;;;;;;;1.97;1.27;;;18.70;70.20;;;;;;6174864;23;20418;-72
2023/08/09 02:27:48;;;;;;;2.13;1.20;;;18.70;70.30;;;;;;6173238;23;20425;-72
2023/08/09 02:30:16;;;;;;;1.23;0.90;;;18.70;69.80;;;;;;6173127;23;20411;-72
2023/08/09 02:32:44;;;;;;;1.40;1.20;;;18.70;69.90;;;;;;6173022;23;20435;-72
2023/08/09 02:35:13;;;;;;;1.47;1.00;;;18.70;70.10;;;;;;6173302;23;20426;-72
2023/08/09 02:37:41;;;;;;;2.40;1.40;;;18.70;70.00;;;;;;6173930;23;20434;-72
2023/08/09 02:40:11;;;;;;;1.70;1.30;;;18.70;69.40;;;;;;6173572;23;20407;-72
2023/08/09 02:42:42;;;;;;;1.60;1.00;;;18.70;69.70;;;;;;6172382;23;20430;-72
2023/08/09 02:45:11;;;;;;;2.57;1.57;;;18.70;69.70;;;;;;6174721;23;20415;-72
2023/08/09 02:47:40;;;;;;;1.90;1.37;;;18.70;69.50;;;;;;6174986;23;20444;-72
2023/08/09 02:50:09;;;;;;;1.93;1.40;;;18.70;70.20;;;;;;6172709;23;20873;-72
2023/08/09 02:52:37;;;;;;;1.40;1.30;;;18.70;69.50;;;;;;6172995;23;20459;-72
2023/08/09 02:55:07;;;;;;;1.60;1.30;;;18.70;69.60;;;;;;6174695;23;20762;-72
2023/08/09 02:57:35;;;;;;;1.90;1.13;;;18.70;69.80;;;;;;6172261;23;20781;-71
2023/08/09 03:00:08;;;;;;;1.60;1.00;;;18.70;69.50;;;;;;6174089;23;20394;-72
2023/08/09 03:02:38;;;;;;;2.40;1.23;;;18.70;69.30;;;;;;6170512;23;20444;-72
2023/08/09 03:05:08;;;;;;;1.67;1.00;;;18.70;69.10;;;;;;6170791;23;20936;-72
2023/08/09 03:07:36;;;;;;;1.63;1.00;;;18.70;69.10;;;;;;6171122;23;20441;-72
2023/08/09 03:10:07;;;;;;;2.07;1.40;;;18.70;68.90;;;;;;6171252;23;20765;-72
2023/08/09 03:12:35;;;;;;;1.53;1.03;;;18.70;68.90;;;;;;6170346;23;20454;-72
2023/08/09 03:15:06;;;;;;;1.80;1.43;;;18.70;68.70;;;;;;6169696;23;21051;-72
2023/08/09 03:17:35;;;;;;;1.97;1.37;;;18.70;68.60;;;;;;6169588;23;20646;-71
2023/08/09 03:20:09;;;;;;;1.70;1.20;;;18.70;68.50;;;;;;6170454;23;20410;-72
2023/08/09 03:22:37;;;;;;;1.87;1.10;;;18.70;68.50;;;;;;6169821;23;20437;-72
2023/08/09 03:25:07;;;;;;;1.50;1.13;;;18.70;68.70;;;;;;6171084;23;20839;-72
2023/08/09 03:27:36;;;;;;;1.40;1.03;;;18.70;68.40;;;;;;6170520;23;20405;-72
2023/08/09 03:30:08;;;;;;;1.80;1.17;;;18.70;68.60;;;;;;6170660;23;20412;-72
2023/08/09 03:32:38;;;;;;;1.57;1.10;;;18.70;68.40;;;;;;6169404;23;20751;-72
2023/08/09 03:35:07;;;;;;;1.43;1.00;;;18.70;68.40;;;;;;6169407;23;20442;-72
2023/08/09 03:37:36;;;;;;;1.40;1.07;;;18.70;68.30;;;;;;6171256;23;20397;-72
2023/08/09 03:40:07;;;;;;;0.90;0.60;;;18.70;68.20;;;;;;6170210;23;21077;-72
2023/08/09 03:42:36;;;;;;;1.80;1.10;;;18.70;68.30;;;;;;6168229;23;20974;-72
2023/08/09 03:45:07;;;;;;;1.50;1.30;;;18.70;68.40;;;;;;6170673;23;20957;-72
2023/08/09 03:47:36;;;;;;;1.50;0.90;;;18.70;68.40;;;;;;6170534;23;20382;-72
2023/08/09 03:50:07;;;;;;;1.60;1.17;;;18.70;68.30;;;;;;6168111;23;20384;-72
2023/08/09 03:52:35;;;;;;;2.03;1.33;;;18.70;68.30;;;;;;6168865;23;20882;-72
2023/08/09 03:55:06;;;;;;;1.70;1.13;;;18.70;68.20;;;;;;6169953;23;20430;-72
2023/08/09 03:57:34;;;;;;;1.60;1.10;;;18.70;68.20;;;;;;6168876;23;20452;-72
2023/08/09 04:00:03;;;;;;;1.60;1.30;;;18.70;68.00;;;;;;6170315;23;20876;-72
2023/08/09 04:02:40;;;;;;;1.10;0.80;;;18.70;68.00;;;;;;6171277;23;20390;-72
2023/08/09 04:05:09;;;;;;;1.70;1.17;;;18.70;68.10;;;;;;6170042;23;20405;-72
2023/08/09 04:07:38;;;;;;;1.23;1.10;;;18.70;68.00;;;;;;6171605;23;20873;-72
2023/08/09 04:10:08;;;;;;;1.50;1.10;;;18.60;67.90;;;;;;6170120;23;20797;-72
2023/08/09 04:12:36;;;;;;;1.40;0.90;;;18.70;68.00;;;;;;6167515;23;20939;-72
2023/08/09 04:15:06;;;;;;;1.40;1.10;;;18.60;67.80;;;;;;6169744;23;20422;-72
2023/08/09 04:17:34;;;;;;;1.83;1.20;;;18.60;67.90;;;;;;6171271;23;20430;-72
2023/08/09 04:20:09;;;;;;;1.50;1.03;;;18.60;68.00;;;;;;6170721;23;20793;-71
2023/08/09 04:22:37;;;;;;;1.40;1.10;;;18.70;68.10;;;;;;6170184;23;20452;-71
2023/08/09 04:25:10;;;;;;;1.30;0.83;;;18.60;67.90;;;;;;6172094;23;20411;-72
2023/08/09 04:27:39;;;;;;;1.67;1.40;;;18.60;67.90;;;;;;6171341;23;20785;-72
2023/08/09 04:30:10;;;;;;;1.90;1.30;;;18.60;67.90;;;;;;6170853;23;20456;-72
2023/08/09 04:32:39;;;;;;;1.80;1.10;;;18.70;68.00;;;;;;6169966;23;20437;-72
2023/08/09 04:35:10;;;;;;;1.50;1.00;;;18.60;67.90;;;;;;6170308;23;20961;-72
2023/08/09 04:37:40;;;;;;;1.70;1.20;;;18.60;68.00;;;;;;6171505;23;20801;-72
2023/08/09 04:40:10;;;;;;;2.00;1.23;;;18.60;67.90;;;;;;6170874;23;20452;-72
2023/08/09 04:42:40;;;;;;;1.30;1.03;;;18.70;68.00;;;;;;6169289;23;20911;-72
2023/08/09 04:45:09;;;;;;;2.00;1.07;;;18.60;68.20;;;;;;6171509;23;20431;-72
2023/08/09 04:47:38;;;;;;;2.40;1.43;;;18.60;68.00;;;;;;6171205;23;20478;-72
2023/08/09 04:50:09;;;;;;;1.50;1.20;;;18.60;68.00;;;;;;6171016;23;20418;-72
2023/08/09 04:52:38;;;;;;;1.27;0.80;;;18.60;68.00;;;;;;6171517;23;20437;-72
2023/08/09 04:55:07;;;;;;;1.47;1.20;;;18.60;68.20;;;;;;6171368;23;20441;-72
2023/08/09 04:57:36;;;;;;;1.80;1.40;;;18.60;67.90;;;;;;6170871;23;20453;-71
2023/08/09 05:00:10;;;;;;;1.70;1.17;;;18.60;68.20;;;;;;6172202;23;20698;-72
2023/08/09 05:02:38;;;;;;;1.27;1.00;;;18.60;68.40;;;;;;6169662;23;20442;-72
2023/08/09 05:05:09;;;;;;;1.33;1.00;;;18.60;68.20;;;;;;6169212;23;20453;-72
2023/08/09 05:07:39;;;;;;;1.40;1.20;;;18.60;68.20;;;;;;6172173;23;20423;-72
2023/08/09 05:10:11;;;;;;;1.33;1.07;;;18.60;68.30;;;;;;6172593;23;20425;-72
2023/08/09 05:12:39;;;;;;;1.20;0.73;;;18.60;68.00;;;;;;6170976;23;20983;-72
2023/08/09 05:15:08;;;;;;;2.40;1.07;;;18.60;68.10;;;;;;6173363;23;20474;-72
2023/08/09 05:17:37;;;;;;;1.50;1.03;;;18.60;68.10;;;;;;6171805;23;20743;-72
2023/08/09 05:20:07;;;;;;;2.20;1.60;;;18.60;68.30;;;;;;6170851;23;20393;-72
2023/08/09 05:22:36;;;;;;;1.50;0.80;;;18.60;68.30;;;;;;6169829;23;20778;-72
2023/08/09 05:25:05;;;;;;;1.50;1.07;;;18.60;69.40;;;;;;6173709;23;20455;-72
2023/08/09 05:27:34;;;;;;;1.87;1.00;;;18.60;68.80;;;;;;6171456;23;20390;-72
2023/08/09 05:30:04;;;;;;;4.13;0.83;;;18.60;68.40;;;;;;6171613;23;20448;-72
2023/08/09 05:32:35;;;;;;;1.70;1.33;;;18.60;68.40;;;;;;6142311;22;20433;-72
2023/08/09 05:35:04;;;;;;;1.30;0.87;;;18.60;68.40;;;;;;6170549;23;20428;-72
2023/08/09 05:37:32;;;;;;;1.50;1.10;;;18.60;68.20;;;;;;6170893;23;20951;-72
2023/08/09 05:40:03;;;;;;;1.53;1.10;;;18.60;68.10;;;;;;6171681;23;20402;-72
2023/08/09 05:42:31;;;;;;;1.53;1.00;;;18.60;68.10;;;;;;6169875;23;20430;-72
2023/08/09 05:45:00;;;;;;;1.70;1.33;;;18.60;69.40;;;;;;6171434;23;20419;-72
2023/08/09 05:47:28;;;;;;;1.40;1.07;;;18.60;68.20;;;;;;6171140;23;20410;-72
2023/08/09 05:49:57;;;;;;;1.70;1.40;;;18.60;68.10;;;;;;6170648;23;20783;-72
2023/08/09 05:52:25;;;;;;;1.50;1.07;;;18.60;68.30;;;;;;6171024;23;20411;-72
2023/08/09 05:54:53;;;;;;;1.50;1.20;;;18.60;67.90;;;;;;6169391;23;20448;-71
2023/08/09 05:57:23;;;;;;;1.60;1.10;;;18.60;68.00;;;;;;6172692;23;20441;-72
2023/08/09 05:59:51;;;;;;;1.90;1.20;;;18.60;68.10;;;;;;6171274;23;20857;-71
2023/08/09 06:02:20;;;;;;;1.13;0.83;;;18.60;68.20;;;;;;6171148;23;20410;-71
2023/08/09 06:04:48;;;;;;;1.53;0.83;;;18.60;68.40;;;;;;6169794;23;22867;-71
2023/08/09 06:07:17;;;;;;;2.03;1.23;;;18.60;68.10;;;;;;6171528;23;20394;-72
2023/08/09 06:09:45;;;;;;;1.40;1.00;;;18.60;68.10;;;;;;6171447;23;20389;-71
2023/08/09 06:12:13;;;;;;;1.80;1.03;;;18.60;68.30;;;;;;6168153;23;20433;-71
2023/08/09 06:14:43;;;;;;;1.37;0.97;;;18.60;68.40;;;;;;6170113;23;20733;-71
2023/08/09 06:17:12;;;;;;;2.20;1.20;;;18.60;67.90;;;;;;6171953;23;20742;-71
2023/08/09 06:19:40;;;;;;;3.93;1.33;;;18.60;68.50;;;;;;6170456;23;20397;-71
2023/08/09 06:22:08;;;;;;;1.57;1.20;;;18.60;68.10;;;;;;6169387;23;20438;-71
2023/08/09 06:24:37;;;;;;;1.50;1.20;;;18.60;68.60;;;;;;6172514;23;20390;-72
2023/08/09 06:27:05;;;;;;;2.30;1.43;;;18.60;68.30;;;;;;6174020;23;20394;-70
2023/08/09 06:29:34;;;;;;;3.50;1.10;;;18.60;68.60;;;;;;6174108;23;20504;-71
2023/08/09 06:32:04;;;;;;;2.47;1.47;;;18.60;68.30;;;;;;6169730;23;20423;-72
2023/08/09 06:34:32;;;;;;;1.80;1.40;;;18.60;69.10;;;;;;6170187;23;20378;-71
2023/08/09 06:37:00;;;;;;;1.50;0.93;;;18.50;68.50;;;;;;6172106;23;20515;-71
2023/08/09 06:39:29;;;;;;;1.97;1.20;;;18.50;68.00;;;;;;6171584;23;20488;-71
2023/08/09 06:41:57;;;;;;;1.47;1.03;;;18.60;68.20;;;;;;6170578;23;20486;-71
2023/08/09 06:44:28;;;;;;;1.73;1.20;;;18.60;68.10;;;;;;6170782;23;20418;-71
2023/08/09 06:46:56;;;;;;;1.83;1.40;;;18.60;68.10;;;;;;6169473;23;20437;-71
2023/08/09 06:49:26;;;;;;;1.83;1.00;;;18.60;68.50;;;;;;6169997;23;20490;-71
2023/08/09 06:51:55;;;;;;;1.40;1.13;;;18.60;68.10;;;;;;6170217;23;20478;-71
2023/08/09 06:54:23;;;;;;;1.63;1.10;;;18.60;67.80;;;;;;6170504;23;20414;-71
2023/08/09 06:56:51;;;;;;;1.50;0.97;;;18.60;68.10;;;;;;6170339;23;20417;-71
2023/08/09 06:59:20;;;;;;;1.90;1.10;;;18.60;67.80;;;;;;6171417;23;20422;-71
2023/08/09 07:01:48;;;;;;;1.53;1.10;;;18.60;67.80;;;;;;6170900;23;20403;-71
2023/08/09 07:04:18;;;;;;;1.70;1.00;;;18.60;69.30;;;;;;6169749;23;20394;-71
2023/08/09 07:06:48;;;;;;;1.83;1.10;;;18.60;68.00;;;;;;6170923;23;20419;-71
2023/08/09 07:09:18;;;;;;;1.77;1.10;;;18.60;68.30;;;;;;6173264;23;20452;-71
2023/08/09 07:11:47;;;;;;;1.60;1.23;;;18.60;68.40;;;;;;6170524;23;20992;-71
2023/08/09 07:14:15;;;;;;;2.67;1.70;;;18.60;67.90;;;;;;6170729;23;20460;-71
2023/08/09 07:16:43;;;;;;;1.50;1.30;;;18.60;68.10;;;;;;6170584;23;20422;-71
2023/08/09 07:19:12;;;;;;;1.60;0.93;;;18.60;67.70;;;;;;6170497;23;20432;-71
2023/08/09 07:21:40;;;;;;;1.40;1.10;;;18.60;67.70;;;;;;6170541;23;20385;-71
2023/08/09 07:24:10;;;;;;;1.30;1.13;;;18.50;68.80;;;;;;6172068;23;20760;-71
2023/08/09 07:26:39;;;;;;;1.60;0.90;;;18.60;68.10;;;;;;6170603;23;20449;-72
2023/08/09 07:29:07;;;;;;;1.63;1.20;;;18.50;67.60;;;;;;6170379;23;20434;-71
2023/08/09 07:31:36;;;;;;;1.53;1.00;;;18.60;67.80;;;;;;6171551;23;20429;-71
2023/08/09 07:34:04;;;;;;;1.20;0.90;;;18.60;67.60;;;;;;6169531;23;20420;-71
2023/08/09 07:36:33;;;;;;;1.60;1.20;;;18.60;67.40;;;;;;6169408;23;20896;-71
2023/08/09 07:39:03;;;;;;;1.20;1.07;;;18.60;67.60;;;;;;6170161;23;20445;-71
2023/08/09 07:41:40;;;;;;;2.20;1.20;;;18.60;67.30;;;;;;6171049;23;20440;-71
2023/08/09 07:44:08;;;;;;;1.40;1.20;;;18.60;67.60;;;;;;6170985;23;20414;-71
2023/08/09 07:46:37;;;;;;;1.70;1.20;;;18.60;67.50;;;;;;6170740;23;20426;-71
2023/08/09 07:49:05;;;;;;;2.23;1.50;;;18.60;67.40;;;;;;6168693;23;20415;-72
2023/08/09 07:51:34;;;;;;;1.70;1.20;;;18.60;67.50;;;;;;6170764;23;20392;-71
2023/08/09 07:54:02;;;;;;;1.30;0.90;;;18.60;67.30;;;;;;6169878;23;20406;-71
2023/08/09 07:56:31;;;;;;;1.60;1.10;;;18.60;67.30;;;;;;6170504;23;20417;-71
2023/08/09 07:59:00;;;;;;;1.40;1.00;;;18.60;67.10;;;;;;6168782;23;21059;-71
2023/08/09 08:01:29;;;;;;;1.43;1.03;;;18.60;67.10;;;;;;6171271;23;20880;-71
2023/08/09 08:03:57;;;;;;;1.70;1.20;;;18.60;67.00;;;;;;6168454;23;20987;-71
2023/08/09 08:06:26;;;;;;;1.60;1.10;;;18.60;67.20;;;;;;6171144;23;20813;-71
2023/08/09 08:08:57;;;;;;;1.53;1.33;;;18.60;67.00;;;;;;6171248;22;20435;-71
2023/08/09 08:11:26;;;;;;;1.47;1.37;;;18.60;67.10;;;;;;6169064;23;20760;-71
2023/08/09 08:13:54;;;;;;;1.93;1.37;;;18.60;67.00;;;;;;6168774;23;20444;-72
2023/08/09 08:16:24;;;;;;;1.33;1.07;;;18.60;67.10;;;;;;6170094;23;20425;-71
2023/08/09 08:18:52;;;;;;;1.40;1.10;;;18.60;67.10;;;;;;6168087;23;20477;-71
2023/08/09 08:21:21;;;;;;;1.70;1.30;;;18.60;67.00;;;;;;6169122;23;20410;-71
2023/08/09 08:23:49;;;;;;;2.53;1.37;;;18.60;67.00;;;;;;6167652;23;20511;-71
2023/08/09 08:26:18;;;;;;;1.70;1.60;;;18.60;66.90;;;;;;6168558;23;20411;-72
2023/08/09 08:28:47;;;;;;;1.67;1.43;;;18.60;67.10;;;;;;6143504;22;20432;-71
2023/08/09 08:31:19;;;;;;;2.33;1.60;;;18.60;66.90;;;;;;6170322;23;20397;-71
2023/08/09 08:33:51;;;;;;;1.60;1.00;;;18.60;66.90;;;;;;6167358;23;20894;-71
2023/08/09 08:36:19;;;;;;;1.60;1.20;;;18.60;66.90;;;;;;6170740;23;20412;-71
2023/08/09 08:38:58;;;;;;;2.13;1.40;;;18.60;67.00;;;;;;6169035;23;20449;-71
2023/08/09 08:41:27;;;;;;;1.67;1.03;;;18.60;66.90;;;;;;6169438;23;20393;-71
2023/08/09 08:43:55;;;;;;;1.60;1.10;;;18.70;66.80;;;;;;6170347;22;21000;-71
2023/08/09 08:46:27;;;;;;;1.97;1.63;;;18.70;66.90;;;;;;6169470;23;20472;-71
2023/08/09 08:49:01;;;;;;;2.87;1.20;;;18.70;66.80;;;;;;6170619;22;20440;-71
2023/08/09 08:51:30;;;;;;;1.43;1.23;;;18.60;66.60;;;;;;6170511;23;20709;-71
2023/08/09 08:53:59;;;;;;;1.53;1.43;;;18.60;66.80;;;;;;6169093;23;20912;-71
2023/08/09 08:56:28;;;;;;;1.83;1.17;;;18.70;66.80;;;;;;6170146;23;20964;-72
2023/08/09 08:58:57;;;;;;;1.60;1.30;;;18.70;66.80;;;;;;6167876;23;20448;-71
2023/08/09 09:01:26;;;;;;;1.60;1.30;;;18.70;66.80;;;;;;6171459;23;20409;-71
2023/08/09 09:03:54;;;;;;;1.30;1.10;;;18.70;66.70;;;;;;6169768;23;20438;-72
2023/08/09 09:06:24;;;;;;;1.50;1.20;;;18.70;66.80;;;;;;6171879;23;20410;-72
2023/08/09 09:08:55;;;;;;;1.77;1.40;;;18.70;66.80;;;;;;6170779;23;20962;-71
2023/08/09 09:11:24;;;;;;;1.30;0.93;;;18.70;66.80;;;;;;6171544;23;20646;-71
2023/08/09 09:13:53;;;;;;;1.70;1.30;;;18.70;66.70;;;;;;6170475;22;20887;-72
2023/08/09 09:16:22;;;;;;;5.07;3.20;;;18.80;67.10;;;;;;6171313;23;20923;-71
2023/08/09 09:18:50;;;;;;;4.17;2.93;;;19.10;69.80;;;;;;6169249;23;20460;-72
2023/08/09 09:21:20;;;;;;;5.13;3.00;;;19.30;70.80;;;;;;6169750;23;20768;-72
2023/08/09 09:23:49;;;;;;;4.63;3.40;;;19.30;68.20;;;;;;6167389;23;20839;-72
2023/08/09 09:26:18;;;;;;;3.60;2.57;;;19.10;68.00;;;;;;6169298;23;20939;-72
2023/08/09 09:28:47;;;;;;;8.10;2.87;;;18.90;68.30;;;;;;6168996;22;21008;-72
2023/08/09 09:31:18;;;;;;;6.23;2.37;;;18.90;68.10;;;;;;6171671;23;20374;-71
2023/08/09 09:33:49;;;;;;;3.57;3.10;;;18.80;68.10;;;;;;6168650;23;20522;-71
2023/08/09 09:36:18;;;;;;;5.37;3.00;;;18.80;68.10;;;;;;6171096;23;20482;-72
2023/08/09 09:38:52;;;;;;;2.93;2.20;;;18.80;68.00;;;;;;6169373;23;20504;-72
2023/08/09 09:41:22;;;;;;;4.20;2.10;;;18.80;67.90;;;;;;6169726;23;20394;-72
2023/08/09 09:43:51;;;;;;;4.33;2.50;;;18.80;68.00;;;;;;6167287;23;21064;-72
2023/08/09 09:46:20;;;;;;;4.33;2.70;;;18.90;68.00;;;;;;6171113;23;20418;-72
2023/08/09 09:49:06;;;;;;;2.80;2.23;;;18.90;67.70;;;;;;6168067;23;20743;-72
2023/08/09 09:51:35;;;;;;;2.73;2.20;;;19.00;68.70;;;;;;6167770;23;20840;-72
2023/08/09 09:54:06;;;;;;;4.30;2.30;;;19.00;67.00;;;;;;6169232;23;20511;-72
2023/08/09 09:56:36;;;;;;;3.63;2.00;;;19.10;66.70;;;;;;6169730;23;21018;-72
2023/08/09 09:59:05;;;;;;;2.43;2.03;;;19.10;66.60;;;;;;6167573;23;20782;-72
2023/08/09 10:01:36;;;;;;;4.07;2.10;;;19.10;66.40;;;;;;6170204;23;20699;-72
2023/08/09 10:04:07;;;;;;;3.40;2.40;;;19.20;65.80;;;;;;6167526;23;20487;-71
2023/08/09 10:06:39;;;;;;;3.20;2.90;;;19.20;66.40;;;;;;6173566;23;20210;-71
2023/08/09 10:09:09;;;;;;;3.10;2.20;;;19.40;63.60;;;;;;6171674;23;20709;-69
2023/08/09 10:11:42;;;;;;;4.03;2.73;;;19.50;63.40;;;;;;6171619;23;20967;-72
2023/08/09 10:14:16;;;;;;;2.60;2.37;;;19.60;63.50;;;;;;6167963;23;20415;-71
2023/08/09 10:16:46;;;;;;;3.87;2.03;;;19.60;63.30;;;;;;6173268;23;20448;-71
2023/08/09 10:19:19;;;;;;;3.20;2.40;;;19.60;63.50;;;;;;6170952;23;20424;-71
2023/08/09 10:21:50;;;;;;;3.40;1.90;;;19.70;64.70;;;;;;6166814;23;20496;-71
2023/08/09 10:24:21;;;;;;;4.80;2.33;;;19.90;59.40;;;;;;6173294;23;20864;-71
2023/08/09 10:26:54;;;;;;;2.87;2.27;;;19.70;61.80;;;;;;6170997;23;20944;-71
2023/08/09 10:29:24;;;;;;;3.57;1.83;;;19.60;64.80;;;;;;6173494;23;20369;-71
2023/08/09 10:31:55;;;;;;;3.60;2.77;;;19.50;64.40;;;;;;6174167;23;20849;-71
2023/08/09 10:34:33;;;;;;;3.73;2.47;;;19.40;64.00;;;;;;6172811;23;20376;-72
2023/08/09 10:37:03;;;;;;;2.37;2.17;;;19.40;64.20;;;;;;6170537;23;20398;-72
2023/08/09 10:39:33;;;;;;;2.50;2.17;;;19.30;64.10;;;;;;6169697;23;20476;-72
2023/08/09 10:42:06;;;;;;;4.43;2.30;;;19.20;64.30;;;;;;6170103;23;20430;-71
2023/08/09 10:44:41;;;;;;;5.20;2.10;;;19.10;64.70;;;;;;6167735;23;20412;-72
2023/08/09 10:47:12;;;;;;;2.40;2.03;;;19.10;65.00;;;;;;6171199;23;20402;-72
2023/08/09 10:50:00;;;;;;;2.43;2.20;;;19.10;65.10;;;;;;6169825;23;20384;-72
2023/08/09 10:52:35;;;;;;;2.83;2.10;;;19.00;65.10;;;;;;6168550;23;20503;-72
2023/08/09 10:55:31;;;;;;;3.50;2.50;;;19.00;65.20;;;;;;6168710;23;20747;-70
2023/08/09 10:58:01;;;;;;;3.90;2.20;;;19.00;65.30;;;;;;6171435;22;20431;-72
2023/08/09 11:00:39;;;;;;;2.43;1.90;;;19.00;65.30;;;;;;6170110;23;20948;-72
2023/08/09 11:03:08;;;;;;;1.90;1.70;;;19.00;65.30;;;;;;6169973;23;20436;-71
2023/08/09 11:05:38;;;;;;;5.10;2.30;;;19.00;65.40;;;;;;6167515;23;20526;-71
2023/08/09 11:08:12;;;;;;;2.80;1.77;;;19.00;66.50;;;;;;6168577;23;20427;-72
2023/08/09 11:10:43;;;;;;;2.37;1.57;;;19.00;65.30;;;;;;6170011;23;20464;-71
2023/08/09 11:13:14;;;;;;;3.60;1.80;;;19.00;65.30;;;;;;6169796;23;20437;-71
2023/08/09 11:15:44;;;;;;;2.10;1.70;;;19.00;65.50;;;;;;6170247;23;20419;-71
2023/08/09 11:18:13;;;;;;;2.50;1.80;;;19.00;65.50;;;;;;6170315;23;20525;-71
2023/08/09 11:20:41;;;;;;;3.83;2.13;;;19.00;65.60;;;;;;6168300;23;20486;-71
2023/08/09 11:23:10;;;;;;;3.13;2.20;;;19.00;65.50;;;;;;6166841;23;20491;-71
2023/08/09 11:25:40;;;;;;;2.43;2.03;;;19.00;65.50;;;;;;6170244;23;20427;-71
2023/08/09 11:28:14;;;;;;;2.33;1.87;;;19.00;65.50;;;;;;6165045;23;20541;-72
2023/08/09 11:30:45;;;;;;;3.20;2.20;;;19.00;65.60;;;;;;6168188;23;20845;-72
2023/08/09 11:33:14;;;;;;;2.40;2.10;;;19.00;65.60;;;;;;6166304;23;20435;-72
2023/08/09 11:35:44;;;;;;;1.87;1.50;;;19.00;65.60;;;;;;6167630;23;20427;-72
2023/08/09 11:38:16;;;;;;;2.00;1.80;;;19.00;65.50;;;;;;6166595;23;20909;-73
2023/08/09 11:40:46;;;;;;;2.80;1.60;;;19.00;65.50;;;;;;6167833;23;20454;-73
2023/08/09 11:43:18;;;;;;;3.30;2.20;;;19.10;65.40;;;;;;6168941;23;20516;-73
2023/08/09 11:45:52;;;;;;;4.30;1.70;;;19.20;65.20;;;;;;6170606;23;20416;-73
2023/08/09 11:48:32;;;;;;;3.00;2.07;;;19.20;65.00;;;;;;6169171;23;20446;-72
2023/08/09 11:51:05;;;;;;;2.00;1.80;;;19.30;64.70;;;;;;6170224;23;20429;-71
2023/08/09 11:53:35;;;;;;;2.20;1.70;;;19.30;64.60;;;;;;6168714;23;20435;-72
2023/08/09 11:56:11;;;;;;;3.00;1.87;;;19.20;64.60;;;;;;6170465;23;20412;-72
2023/08/09 11:58:43;;;;;;;1.63;1.40;;;19.20;64.70;;;;;;6144903;22;20447;-72
2023/08/09 12:01:21;;;;;;;2.50;1.80;;;19.20;64.80;;;;;;6170496;23;20423;-72
2023/08/09 12:03:51;;;;;;;2.10;1.80;;;19.20;64.90;;;;;;6170413;22;20461;-71
2023/08/09 12:06:38;;;;;;;3.10;2.00;;;19.10;65.00;;;;;;6170948;23;20442;-70
2023/08/09 12:09:27;;;;;;;2.00;1.80;;;19.20;65.20;;;;;;6169818;23;20490;-72
2023/08/09 12:12:05;;;;;;;1.67;1.50;;;19.10;65.00;;;;;;6169013;23;20427;-72
2023/08/09 12:14:37;;;;;;;2.13;1.93;;;19.10;65.20;;;;;;6170079;23;20391;-72
2023/08/09 12:17:06;;;;;;;2.50;2.00;;;19.10;65.20;;;;;;6169691;23;20438;-70
2023/08/09 12:19:36;;;;;;;1.87;1.60;;;19.10;65.30;;;;;;6168512;23;20399;-70
2023/08/09 12:22:05;;;;;;;2.53;1.80;;;19.10;65.10;;;;;;6168919;23;20425;-72
2023/08/09 12:24:33;;;;;;;3.00;1.60;;;19.10;65.10;;;;;;6169815;23;20431;-72
2023/08/09 12:27:03;;;;;;;2.50;1.87;;;19.10;65.00;;;;;;6168823;23;20435;-73
2023/08/09 12:29:32;;;;;;;3.90;1.80;;;19.10;65.00;;;;;;6170012;23;20747;-73
2023/08/09 12:32:03;;;;;;;2.30;2.10;;;19.20;64.90;;;;;;6169186;23;20412;-72
2023/08/09 12:34:33;;;;;;;5.37;2.43;;;19.30;64.70;;;;;;6171299;23;20699;-73
2023/08/09 12:37:01;;;;;;;4.17;2.10;;;19.30;64.40;;;;;;6171014;23;20436;-73
2023/08/09 12:39:30;;;;;;;3.27;2.40;;;19.40;64.20;;;;;;6171837;23;20781;-72
2023/08/09 12:41:59;;;;;;;3.20;2.40;;;19.40;64.00;;;;;;6169750;23;20420;-71
2023/08/09 12:44:28;;;;;;;4.67;2.43;;;19.40;63.80;;;;;;6171835;23;20411;-72
2023/08/09 12:46:57;;;;;;;5.83;2.73;;;19.60;62.40;;;;;;6169622;23;20410;-72
2023/08/09 12:49:27;;;;;;;5.70;2.33;;;19.60;62.90;;;;;;6171007;23;20432;-72
2023/08/09 12:51:55;;;;;;;3.10;1.97;;;19.50;63.40;;;;;;6171690;23;20438;-72
2023/08/09 12:54:23;;;;;;;3.10;2.03;;;19.40;64.60;;;;;;6171730;23;20412;-71
2023/08/09 12:56:52;;;;;;;4.80;2.00;;;19.40;63.30;;;;;;6171617;23;20409;-71
2023/08/09 12:59:23;;;;;;;2.83;2.60;;;19.40;63.30;;;;;;6171090;23;20383;-72
2023/08/09 13:01:52;;;;;;;2.97;2.17;;;19.30;63.30;;;;;;6171684;23;20428;-72